createdAt,value
2023-05-05T00:00:12.134Z,29.56
2023-05-05T00:01:12.192Z,29.55
2023-05-05T00:02:12.275Z,29.55
2023-05-05T00:03:12.325Z,29.56
2023-05-05T00:04:12.370Z,29.55
2023-05-05T00:05:12.400Z,29.56
2023-05-05T00:06:12.444Z,29.53
2023-05-05T00:07:12.508Z,29.51
2023-05-05T00:08:12.557Z,29.58
2023-05-05T00:09:12.640Z,29.52
2023-05-05T00:10:12.672Z,29.52
2023-05-05T00:11:12.742Z,29.52
2023-05-05T00:12:12.755Z,29.58
2023-05-05T00:13:12.914Z,29.55
2023-05-05T00:14:12.867Z,29.56
2023-05-05T00:15:12.940Z,29.60
2023-05-05T00:16:12.996Z,29.55
2023-05-05T00:17:13.125Z,29.60
2023-05-05T00:18:13.087Z,29.53
2023-05-05T00:19:13.131Z,29.56
2023-05-05T00:20:13.169Z,29.55
2023-05-05T00:21:13.231Z,29.55
2023-05-05T00:22:13.282Z,29.55
2023-05-05T00:23:13.314Z,29.51
2023-05-05T00:24:13.362Z,29.51
2023-05-05T00:25:13.434Z,29.47
2023-05-05T00:26:13.497Z,29.44
2023-05-05T00:27:13.521Z,29.45
2023-05-05T00:28:13.621Z,29.44
2023-05-05T00:29:13.642Z,29.48
2023-05-05T00:30:13.720Z,29.50
2023-05-05T00:31:13.791Z,29.45
2023-05-05T00:32:13.840Z,29.49
2023-05-05T00:33:13.849Z,29.51
2023-05-05T00:34:13.895Z,29.49
2023-05-05T00:35:13.958Z,29.51
2023-05-05T00:36:14.034Z,29.51
2023-05-05T00:37:14.116Z,29.48
2023-05-05T00:38:14.174Z,29.47
2023-05-05T00:39:14.196Z,29.48
2023-05-05T00:40:14.244Z,29.48
2023-05-05T00:41:14.294Z,29.51
2023-05-05T00:42:14.365Z,29.52
2023-05-05T00:43:14.422Z,29.53
2023-05-05T00:44:14.468Z,29.50
2023-05-05T00:45:14.535Z,29.53
2023-05-05T00:46:14.635Z,29.59
2023-05-05T00:47:14.632Z,29.57
2023-05-05T00:48:14.724Z,29.56
2023-05-05T00:49:14.856Z,29.55
2023-05-05T00:50:14.815Z,29.59
2023-05-05T00:51:14.889Z,29.60
2023-05-05T00:52:14.953Z,29.61
2023-05-05T00:53:15.007Z,29.61
2023-05-05T00:54:15.068Z,29.57
2023-05-05T00:55:15.164Z,29.59
2023-05-05T00:56:15.224Z,29.64
2023-05-05T00:57:15.310Z,29.69
2023-05-05T00:58:15.325Z,29.66
2023-05-05T00:59:15.396Z,29.67
2023-05-05T01:00:15.439Z,29.64
2023-05-05T01:01:15.651Z,29.66
2023-05-05T01:02:15.544Z,29.69
2023-05-05T01:03:15.777Z,29.73
2023-05-05T01:04:15.702Z,29.73
2023-05-05T01:05:15.759Z,29.69
2023-05-05T01:06:15.823Z,29.67
2023-05-05T01:07:15.891Z,29.70
2023-05-05T01:08:16.804Z,29.71
2023-05-05T01:09:16.030Z,29.72
2023-05-05T01:10:20.427Z,29.73
2023-05-05T01:11:16.061Z,29.73
2023-05-05T01:12:16.049Z,29.74
2023-05-05T01:13:16.069Z,29.74
2023-05-05T01:14:16.052Z,29.75
2023-05-05T01:15:16.013Z,29.77
2023-05-05T01:16:16.034Z,29.75
2023-05-05T01:17:16.008Z,29.72
2023-05-05T01:18:15.994Z,29.76
2023-05-05T01:19:15.975Z,29.76
2023-05-05T01:20:15.988Z,29.79
2023-05-05T01:21:16.020Z,29.82
2023-05-05T01:22:15.979Z,29.79
2023-05-05T01:23:16.055Z,29.79
2023-05-05T01:24:16.099Z,29.84
2023-05-05T01:25:16.165Z,29.80
2023-05-05T01:26:16.209Z,29.82
2023-05-05T01:27:16.287Z,29.77
2023-05-05T01:28:16.370Z,29.82
2023-05-05T01:29:16.409Z,29.84
2023-05-05T01:30:16.449Z,29.81
2023-05-05T01:31:16.536Z,29.86
2023-05-05T01:32:16.592Z,29.83
2023-05-05T01:33:16.617Z,29.87
2023-05-05T01:34:16.695Z,29.83
2023-05-05T01:35:16.753Z,29.83
2023-05-05T01:36:16.776Z,29.88
2023-05-05T01:37:16.865Z,29.83
2023-05-05T01:38:16.926Z,29.79
2023-05-05T01:39:16.998Z,29.87
2023-05-05T01:40:17.008Z,29.87
2023-05-05T01:41:17.057Z,29.87
2023-05-05T01:42:17.132Z,29.89
2023-05-05T01:43:17.163Z,29.88
2023-05-05T01:44:17.256Z,29.92
2023-05-05T01:45:17.318Z,29.87
2023-05-05T01:46:17.405Z,29.88
2023-05-05T01:47:17.402Z,29.88
2023-05-05T01:48:17.399Z,29.85
2023-05-05T01:49:17.489Z,29.87
2023-05-05T01:50:17.506Z,29.85
2023-05-05T01:51:17.597Z,29.86
2023-05-05T01:52:17.656Z,29.86
2023-05-05T01:53:17.687Z,29.92
2023-05-05T01:54:17.731Z,29.92
2023-05-05T01:55:17.732Z,29.91
2023-05-05T01:56:17.774Z,29.88
2023-05-05T01:57:17.781Z,29.94
2023-05-05T01:58:17.832Z,29.89
2023-05-05T01:59:17.879Z,29.90
2023-05-05T02:00:17.872Z,29.91
2023-05-05T02:01:17.905Z,29.93
2023-05-05T02:02:17.927Z,29.96
2023-05-05T02:03:17.976Z,29.94
2023-05-05T02:04:17.934Z,29.91
2023-05-05T02:05:17.960Z,29.90
2023-05-05T02:06:17.999Z,29.96
2023-05-05T02:07:17.995Z,29.93
2023-05-05T02:08:18.073Z,29.94
2023-05-05T02:09:18.067Z,29.91
2023-05-05T02:10:18.149Z,29.93
2023-05-05T02:11:18.165Z,29.91
2023-05-05T02:12:18.226Z,29.93
2023-05-05T02:13:18.363Z,29.92
2023-05-05T02:14:18.239Z,29.90
2023-05-05T02:15:18.250Z,29.91
2023-05-05T02:16:18.433Z,29.89
2023-05-05T02:17:18.276Z,29.95
2023-05-05T02:18:18.261Z,29.94
2023-05-05T02:19:18.272Z,29.95
2023-05-05T02:20:18.285Z,29.97
2023-05-05T02:21:18.308Z,29.95
2023-05-05T02:22:18.301Z,29.98
2023-05-05T02:23:18.263Z,30.01
2023-05-05T02:24:18.411Z,29.98
2023-05-05T02:25:18.311Z,30.03
2023-05-05T02:26:18.319Z,30.02
2023-05-05T02:27:18.341Z,30.06
2023-05-05T02:28:18.290Z,30.06
2023-05-05T02:29:18.314Z,30.07
2023-05-05T02:30:18.331Z,30.06
2023-05-05T02:31:18.391Z,30.05
2023-05-05T02:32:18.337Z,30.03
2023-05-05T02:33:18.317Z,30.06
2023-05-05T02:34:18.311Z,30.06
2023-05-05T02:35:18.320Z,30.08
2023-05-05T02:36:18.310Z,30.08
2023-05-05T02:37:18.332Z,30.11
2023-05-05T02:38:18.336Z,30.12
2023-05-05T02:39:18.316Z,30.16
2023-05-05T02:40:18.297Z,30.16
2023-05-05T02:41:18.305Z,30.14
2023-05-05T02:42:18.289Z,30.09
2023-05-05T02:43:18.396Z,30.14
2023-05-05T02:44:18.311Z,30.18
2023-05-05T02:45:18.309Z,30.15
2023-05-05T02:46:18.352Z,30.17
2023-05-05T02:47:18.315Z,30.22
2023-05-05T02:48:18.317Z,30.18
2023-05-05T02:49:18.272Z,30.24
2023-05-05T02:50:18.320Z,30.17
2023-05-05T02:51:18.281Z,30.19
2023-05-05T02:52:18.288Z,30.16
2023-05-05T02:53:18.287Z,30.17
2023-05-05T02:54:18.278Z,30.19
2023-05-05T02:55:18.278Z,30.18
2023-05-05T02:56:18.246Z,30.20
2023-05-05T02:57:18.301Z,30.21
2023-05-05T02:58:18.267Z,30.20
2023-05-05T02:59:18.279Z,30.21
2023-05-05T03:00:18.275Z,30.22
2023-05-05T03:01:18.346Z,30.26
2023-05-05T03:02:18.286Z,30.26
2023-05-05T03:03:18.408Z,30.27
2023-05-05T03:04:18.282Z,30.33
2023-05-05T03:05:18.330Z,30.31
2023-05-05T03:06:18.301Z,30.34
2023-05-05T03:07:18.322Z,30.30
2023-05-05T03:08:18.321Z,30.34
2023-05-05T03:09:18.336Z,30.37
2023-05-05T03:10:18.297Z,30.28
2023-05-05T03:11:18.305Z,30.29
2023-05-05T03:12:18.319Z,30.23
2023-05-05T03:13:18.282Z,30.29
2023-05-05T03:14:18.330Z,30.24
2023-05-05T03:15:18.303Z,30.29
2023-05-05T03:16:18.332Z,30.28
2023-05-05T03:17:18.302Z,30.25
2023-05-05T03:18:18.290Z,30.26
2023-05-05T03:19:18.271Z,30.22
2023-05-05T03:20:18.270Z,30.27
2023-05-05T03:21:18.306Z,30.25
2023-05-05T03:22:18.294Z,30.21
2023-05-05T03:23:18.327Z,30.21
2023-05-05T03:24:18.298Z,30.23
2023-05-05T03:25:18.308Z,30.24
2023-05-05T03:26:18.292Z,30.27
2023-05-05T03:27:18.308Z,30.21
2023-05-05T03:28:18.316Z,30.23
2023-05-05T03:29:18.282Z,30.17
2023-05-05T03:30:18.294Z,30.20
2023-05-05T03:31:18.398Z,30.21
2023-05-05T03:32:18.309Z,30.27
2023-05-05T03:33:18.267Z,30.20
2023-05-05T03:34:18.246Z,30.15
2023-05-05T03:35:18.257Z,30.15
2023-05-05T03:36:18.262Z,30.20
2023-05-05T03:37:18.230Z,30.21
2023-05-05T03:38:18.276Z,30.25
2023-05-05T03:39:18.295Z,30.15
2023-05-05T03:40:18.299Z,30.25
2023-05-05T03:41:18.370Z,30.26
2023-05-05T03:42:18.262Z,30.30
2023-05-05T03:43:18.331Z,30.31
2023-05-05T03:44:18.283Z,30.31
2023-05-05T03:45:18.285Z,30.27
2023-05-05T03:46:18.446Z,30.31
2023-05-05T03:47:18.299Z,30.29
2023-05-05T03:48:18.324Z,30.37
2023-05-05T03:49:18.348Z,30.30
2023-05-05T03:50:18.361Z,30.35
2023-05-05T03:51:18.356Z,30.40
2023-05-05T03:52:18.403Z,30.38
2023-05-05T03:53:18.420Z,30.45
2023-05-05T03:54:18.411Z,30.35
2023-05-05T03:55:18.433Z,30.40
2023-05-05T03:56:18.464Z,30.43
2023-05-05T03:57:18.479Z,30.46
2023-05-05T03:58:18.483Z,30.47
2023-05-05T03:59:18.494Z,30.42
2023-05-05T04:00:18.500Z,30.44
2023-05-05T04:01:18.500Z,30.47
2023-05-05T04:02:18.937Z,30.44
2023-05-05T04:03:18.644Z,30.51
2023-05-05T04:04:18.652Z,30.46
2023-05-05T04:05:18.563Z,30.48
2023-05-05T04:06:18.638Z,30.50
2023-05-05T04:07:18.634Z,30.46
2023-05-05T04:08:18.644Z,30.39
2023-05-05T04:09:18.677Z,30.40
2023-05-05T04:10:18.698Z,30.39
2023-05-05T04:11:18.669Z,30.39
2023-05-05T04:12:18.764Z,30.43
2023-05-05T04:13:18.755Z,30.42
2023-05-05T04:14:18.724Z,30.45
2023-05-05T04:15:18.736Z,30.42
2023-05-05T04:16:18.784Z,30.43
2023-05-05T04:17:18.740Z,30.43
2023-05-05T04:18:18.727Z,30.42
2023-05-05T04:19:18.781Z,30.41
2023-05-05T04:20:18.788Z,30.43
2023-05-05T04:21:18.792Z,30.42
2023-05-05T04:22:18.781Z,30.42
2023-05-05T04:23:18.812Z,30.41
2023-05-05T04:24:18.793Z,30.38
2023-05-05T04:25:18.821Z,30.39
2023-05-05T04:26:18.796Z,30.41
2023-05-05T04:27:18.845Z,30.38
2023-05-05T04:28:20.951Z,30.38
2023-05-05T04:29:18.797Z,30.42
2023-05-05T04:30:18.810Z,30.41
2023-05-05T04:31:18.859Z,30.40
2023-05-05T04:32:18.782Z,30.39
2023-05-05T04:33:18.779Z,30.38
2023-05-05T04:34:18.739Z,30.38
2023-05-05T04:35:18.740Z,30.40
2023-05-05T04:36:18.741Z,30.42
2023-05-05T04:37:18.726Z,30.39
2023-05-05T04:38:18.756Z,30.38
2023-05-05T04:39:18.734Z,30.42
2023-05-05T04:40:18.748Z,30.39
2023-05-05T04:41:18.730Z,30.43
2023-05-05T04:42:18.697Z,30.41
2023-05-05T04:43:18.705Z,30.43
2023-05-05T04:44:18.685Z,30.45
2023-05-05T04:45:18.695Z,30.42
2023-05-05T04:46:18.702Z,30.43
2023-05-05T04:47:18.654Z,30.46
2023-05-05T04:48:18.682Z,30.43
2023-05-05T04:49:18.669Z,30.49
2023-05-05T04:50:18.684Z,30.51
2023-05-05T04:51:18.673Z,30.49
2023-05-05T04:52:18.612Z,30.46
2023-05-05T04:53:18.605Z,30.49
2023-05-05T04:54:18.616Z,30.53
2023-05-05T04:55:18.656Z,30.53
2023-05-05T04:56:18.632Z,30.53
2023-05-05T04:57:18.601Z,30.51
2023-05-05T04:58:18.607Z,30.57
2023-05-05T04:59:18.629Z,30.54
2023-05-05T05:00:18.578Z,30.50
2023-05-05T05:01:18.589Z,30.54
2023-05-05T05:02:18.590Z,30.50
2023-05-05T05:03:18.645Z,30.51
2023-05-05T05:04:18.720Z,30.45
2023-05-05T05:05:18.540Z,30.42
2023-05-05T05:06:18.558Z,30.43
2023-05-05T05:07:18.536Z,30.48
2023-05-05T05:08:18.503Z,30.45
2023-05-05T05:09:18.485Z,30.41
2023-05-05T05:10:18.493Z,30.36
2023-05-05T05:11:18.476Z,30.38
2023-05-05T05:12:18.492Z,30.40
2023-05-05T05:13:18.690Z,30.44
2023-05-05T05:14:18.493Z,30.38
2023-05-05T05:15:18.478Z,30.42
2023-05-05T05:16:18.533Z,30.38
2023-05-05T05:17:18.489Z,30.43
2023-05-05T05:18:18.469Z,30.48
2023-05-05T05:19:18.453Z,30.41
2023-05-05T05:20:18.439Z,30.49
2023-05-05T05:21:18.413Z,30.40
2023-05-05T05:22:18.432Z,30.41
2023-05-05T05:23:19.389Z,30.41
2023-05-05T05:24:18.416Z,30.40
2023-05-05T05:25:18.385Z,30.44
2023-05-05T05:26:18.389Z,30.41
2023-05-05T05:27:18.398Z,30.42
2023-05-05T05:28:18.373Z,30.36
2023-05-05T05:29:18.353Z,30.37
2023-05-05T05:30:18.341Z,30.40
2023-05-05T05:31:18.359Z,30.37
2023-05-05T05:32:18.372Z,30.40
2023-05-05T05:33:18.325Z,30.37
2023-05-05T05:34:18.333Z,30.41
2023-05-05T05:35:18.337Z,30.41
2023-05-05T05:36:18.303Z,30.54
2023-05-05T05:37:18.284Z,30.47
2023-05-05T05:38:18.312Z,30.56
2023-05-05T05:39:18.291Z,30.55
2023-05-05T05:40:18.323Z,30.51
2023-05-05T05:41:18.284Z,30.63
2023-05-05T05:42:18.320Z,30.67
2023-05-05T05:43:18.291Z,30.64
2023-05-05T05:44:18.232Z,30.67
2023-05-05T05:45:18.262Z,30.82
2023-05-05T05:46:18.276Z,30.79
2023-05-05T05:47:18.240Z,30.86
2023-05-05T05:48:18.218Z,30.90
2023-05-05T05:49:18.230Z,31.16
2023-05-05T05:50:18.208Z,31.32
2023-05-05T05:51:18.217Z,31.27
2023-05-05T05:52:18.192Z,31.41
2023-05-05T05:53:18.179Z,31.78
2023-05-05T05:54:18.183Z,31.85
2023-05-05T05:55:18.254Z,32.15
2023-05-05T05:56:18.167Z,32.26
2023-05-05T05:57:18.142Z,32.24
2023-05-05T05:58:18.178Z,32.09
2023-05-05T05:59:18.158Z,31.97
2023-05-05T06:00:18.158Z,31.92
2023-05-05T06:01:18.154Z,31.88
2023-05-05T06:02:18.188Z,32.00
2023-05-05T06:03:18.217Z,31.93
2023-05-05T06:04:18.173Z,32.04
2023-05-05T06:05:18.172Z,32.03
2023-05-05T06:06:18.417Z,32.02
2023-05-05T06:07:18.224Z,32.01
2023-05-05T06:08:18.246Z,32.01
2023-05-05T06:09:18.285Z,32.06
2023-05-05T06:10:26.500Z,32.02
2023-05-05T06:11:19.306Z,31.99
2023-05-05T06:12:18.277Z,32.02
2023-05-05T06:13:18.313Z,32.06
2023-05-05T06:14:19.948Z,31.99
2023-05-05T06:15:18.258Z,32.03
2023-05-05T06:16:18.269Z,32.00
2023-05-05T06:17:18.291Z,31.89
2023-05-05T06:18:18.268Z,31.94
2023-05-05T06:19:18.249Z,31.86
2023-05-05T06:20:18.237Z,31.78
2023-05-05T06:21:18.220Z,31.73
2023-05-05T06:22:18.251Z,31.84
2023-05-05T06:23:18.207Z,31.82
2023-05-05T06:24:18.175Z,31.80
2023-05-05T06:25:18.213Z,31.81
2023-05-05T06:26:18.153Z,31.85
2023-05-05T06:27:18.386Z,31.76
2023-05-05T06:28:18.189Z,31.77
2023-05-05T06:29:18.178Z,31.69
2023-05-05T06:30:18.155Z,31.62
2023-05-05T06:31:18.220Z,31.66
2023-05-05T06:32:18.156Z,31.61
2023-05-05T06:33:18.159Z,31.52
2023-05-05T06:34:18.164Z,31.50
2023-05-05T06:35:18.193Z,31.47
2023-05-05T06:36:18.228Z,31.36
2023-05-05T06:37:18.604Z,31.28
2023-05-05T06:38:18.193Z,31.33
2023-05-05T06:39:18.196Z,31.23
2023-05-05T06:40:18.197Z,31.29
2023-05-05T06:41:18.231Z,31.25
2023-05-05T06:42:18.262Z,31.17
2023-05-05T06:43:18.205Z,31.16
2023-05-05T06:44:18.193Z,31.10
2023-05-05T06:45:18.192Z,31.09
2023-05-05T06:46:18.181Z,31.09
2023-05-05T06:47:18.432Z,31.06
2023-05-05T06:48:18.254Z,31.07
2023-05-05T06:49:18.198Z,31.17
2023-05-05T06:50:18.206Z,31.25
2023-05-05T06:51:18.151Z,31.35
2023-05-05T06:52:18.192Z,31.94
2023-05-05T06:53:18.215Z,32.47
2023-05-05T06:54:18.244Z,32.66
2023-05-05T06:55:18.276Z,32.86
2023-05-05T06:56:18.333Z,32.95
2023-05-05T06:57:18.385Z,32.97
2023-05-05T06:58:18.357Z,32.87
2023-05-05T06:59:18.430Z,32.81
2023-05-05T07:00:18.482Z,32.75
2023-05-05T07:01:18.670Z,32.71
2023-05-05T07:02:18.626Z,32.72
2023-05-05T07:03:18.764Z,32.70
2023-05-05T07:04:18.998Z,32.18
2023-05-05T07:05:18.798Z,31.81
2023-05-05T07:06:18.842Z,31.87
2023-05-05T07:07:18.921Z,31.50
2023-05-05T07:08:19.038Z,31.02
2023-05-05T07:09:19.012Z,30.68
2023-05-05T07:10:19.048Z,30.68
2023-05-05T07:11:19.035Z,30.60
2023-05-05T07:12:19.090Z,30.63
2023-05-05T07:13:19.101Z,30.30
2023-05-05T07:14:19.592Z,30.55
2023-05-05T07:15:28.098Z,30.75
2023-05-05T07:16:20.125Z,30.69
2023-05-05T07:17:19.097Z,30.88
2023-05-05T07:18:19.066Z,30.85
2023-05-05T07:19:19.101Z,30.90
2023-05-05T07:20:19.240Z,30.54
2023-05-05T07:21:19.038Z,30.36
2023-05-05T07:22:19.086Z,30.41
2023-05-05T07:23:19.058Z,30.39
2023-05-05T07:24:19.033Z,30.36
2023-05-05T07:25:19.008Z,30.01
2023-05-05T07:26:19.046Z,30.33
2023-05-05T07:27:19.045Z,30.54
2023-05-05T07:28:19.009Z,30.80
2023-05-05T07:29:19.016Z,30.56
2023-05-05T07:30:19.458Z,30.05
2023-05-05T07:31:19.008Z,30.30
2023-05-05T07:32:19.066Z,29.87
2023-05-05T07:33:19.007Z,30.33
2023-05-05T07:34:18.989Z,30.48
2023-05-05T07:35:19.039Z,30.90
2023-05-05T07:36:19.241Z,30.48
2023-05-05T07:37:19.459Z,30.03
2023-05-05T07:38:19.085Z,30.14
2023-05-05T07:39:22.883Z,29.72
2023-05-05T07:40:19.090Z,29.91
2023-05-05T07:41:19.074Z,29.00
2023-05-05T07:42:19.447Z,28.46
2023-05-05T07:43:19.059Z,28.50
2023-05-05T07:44:19.084Z,28.35
2023-05-05T07:45:19.092Z,28.46
2023-05-05T07:46:19.286Z,28.56
2023-05-05T07:47:19.482Z,27.96
2023-05-05T07:48:19.038Z,28.12
2023-05-05T07:49:19.061Z,27.98
2023-05-05T07:50:19.050Z,28.22
2023-05-05T07:51:19.002Z,28.34
2023-05-05T07:52:21.477Z,28.78
2023-05-05T07:53:20.196Z,28.66
2023-05-05T07:54:19.001Z,28.76
2023-05-05T07:55:18.999Z,28.88
2023-05-05T07:56:19.893Z,28.74
2023-05-05T07:57:19.165Z,28.50
2023-05-05T07:58:19.218Z,28.54
2023-05-05T07:59:19.223Z,28.49
2023-05-05T08:00:19.294Z,28.44
2023-05-05T08:01:19.371Z,28.48
2023-05-05T08:02:19.368Z,28.32
2023-05-05T08:03:19.372Z,28.12
2023-05-05T08:04:19.389Z,28.15
2023-05-05T08:05:19.392Z,28.23
2023-05-05T08:06:19.411Z,28.22
2023-05-05T08:07:19.436Z,28.19
2023-05-05T08:08:19.583Z,28.02
2023-05-05T08:09:19.516Z,28.02
2023-05-05T08:10:19.495Z,28.26
2023-05-05T08:11:19.529Z,28.18
2023-05-05T08:12:19.566Z,28.26
2023-05-05T08:13:19.644Z,28.09
2023-05-05T08:14:19.566Z,28.20
2023-05-05T08:15:19.563Z,28.36
2023-05-05T08:16:19.609Z,28.40
2023-05-05T08:17:19.573Z,28.52
2023-05-05T08:18:19.577Z,28.50
2023-05-05T08:19:28.829Z,28.57
2023-05-05T08:20:20.596Z,28.41
2023-05-05T08:21:19.551Z,28.49
2023-05-05T08:22:19.544Z,28.57
2023-05-05T08:23:19.570Z,28.43
2023-05-05T08:24:19.610Z,28.41
2023-05-05T08:25:19.522Z,28.30
2023-05-05T08:26:19.508Z,28.45
2023-05-05T08:27:19.495Z,28.53
2023-05-05T08:28:19.614Z,28.29
2023-05-05T08:29:19.485Z,28.56
2023-05-05T08:30:19.490Z,28.59
2023-05-05T08:31:19.560Z,28.39
2023-05-05T08:32:19.572Z,28.50
2023-05-05T08:33:19.550Z,28.29
2023-05-05T08:34:19.593Z,27.93
2023-05-05T08:35:19.599Z,27.87
2023-05-05T08:36:19.641Z,28.17
2023-05-05T08:37:19.659Z,28.47
2023-05-05T08:38:19.659Z,28.55
2023-05-05T08:39:19.666Z,28.71
2023-05-05T08:40:19.754Z,28.40
2023-05-05T08:41:19.829Z,28.68
2023-05-05T08:42:35.657Z,28.96
2023-05-05T08:43:20.711Z,29.09
2023-05-05T08:44:19.690Z,28.08
2023-05-05T08:45:19.668Z,28.68
2023-05-05T08:46:19.701Z,28.85
2023-05-05T08:47:20.025Z,29.00
2023-05-05T08:48:19.764Z,29.21
2023-05-05T08:49:19.847Z,29.21
2023-05-05T08:50:19.915Z,29.33
2023-05-05T08:51:19.984Z,29.31
2023-05-05T08:52:20.507Z,29.46
2023-05-05T08:53:20.070Z,28.86
2023-05-05T08:54:20.097Z,28.86
2023-05-05T08:55:20.174Z,28.37
2023-05-05T08:56:20.396Z,28.15
2023-05-05T08:57:20.293Z,28.97
2023-05-05T08:58:20.363Z,29.18
2023-05-05T08:59:20.455Z,29.59
2023-05-05T09:00:20.551Z,29.71
2023-05-05T09:01:20.589Z,29.96
2023-05-05T09:02:20.643Z,30.22
2023-05-05T09:03:20.667Z,30.39
2023-05-05T09:04:20.709Z,30.43
2023-05-05T09:05:20.759Z,30.50
2023-05-05T09:06:20.784Z,30.53
2023-05-05T09:07:20.968Z,30.54
2023-05-05T09:08:20.833Z,30.59
2023-05-05T09:09:20.893Z,30.76
2023-05-05T09:10:20.927Z,30.76
2023-05-05T09:11:20.932Z,30.82
2023-05-05T09:12:20.999Z,30.90
2023-05-05T09:13:21.034Z,31.07
2023-05-05T09:14:20.972Z,31.12
2023-05-05T09:15:20.991Z,31.10
2023-05-05T09:16:21.009Z,31.20
2023-05-05T09:17:21.051Z,31.32
2023-05-05T09:18:21.006Z,31.38
2023-05-05T09:19:21.014Z,31.44
2023-05-05T09:20:21.065Z,31.46
2023-05-05T09:21:21.014Z,31.55
2023-05-05T09:22:21.507Z,31.59
2023-05-05T09:23:21.087Z,31.72
2023-05-05T09:24:21.055Z,31.76
2023-05-05T09:25:21.070Z,31.85
2023-05-05T09:26:21.044Z,31.91
2023-05-05T09:27:21.024Z,32.02
2023-05-05T09:28:21.626Z,32.14
2023-05-05T09:29:21.048Z,32.22
2023-05-05T09:30:21.159Z,32.35
2023-05-05T09:31:21.060Z,32.43
2023-05-05T09:32:21.065Z,32.54
2023-05-05T09:33:21.057Z,32.60
2023-05-05T09:34:21.051Z,32.67
2023-05-05T09:35:21.100Z,32.69
2023-05-05T09:36:21.147Z,32.84
2023-05-05T09:37:21.177Z,32.86
2023-05-05T09:38:21.255Z,32.93
2023-05-05T09:39:21.290Z,32.98
2023-05-05T09:40:21.449Z,32.90
2023-05-05T09:41:21.389Z,33.08
2023-05-05T09:42:21.522Z,32.92
2023-05-05T09:43:22.063Z,32.79
2023-05-05T09:44:21.702Z,32.58
2023-05-05T09:45:21.645Z,32.45
2023-05-05T09:46:21.661Z,32.31
2023-05-05T09:47:29.560Z,32.26
2023-05-05T09:48:23.000Z,32.02
2023-05-05T09:49:21.667Z,31.84
2023-05-05T09:50:22.402Z,31.77
2023-05-05T09:51:21.695Z,31.70
2023-05-05T09:52:21.703Z,31.64
2023-05-05T09:53:21.668Z,31.49
2023-05-05T09:54:21.649Z,31.44
2023-05-05T09:55:21.660Z,31.29
2023-05-05T09:56:21.652Z,31.24
2023-05-05T09:57:21.624Z,31.13
2023-05-05T09:58:22.001Z,31.16
2023-05-05T09:59:21.631Z,31.14
2023-05-05T10:00:21.810Z,31.13
2023-05-05T10:01:21.624Z,31.13
2023-05-05T10:02:21.573Z,31.09
2023-05-05T10:03:21.974Z,31.07
2023-05-05T10:04:21.614Z,31.05
2023-05-05T10:05:21.603Z,31.02
2023-05-05T10:06:21.594Z,31.07
2023-05-05T10:07:21.585Z,31.07
2023-05-05T10:08:21.980Z,31.06
2023-05-05T10:09:21.572Z,31.04
2023-05-05T10:10:21.540Z,31.05
2023-05-05T10:11:21.549Z,31.03
2023-05-05T10:12:21.542Z,31.00
2023-05-05T10:13:21.580Z,31.03
2023-05-05T10:14:21.546Z,31.00
2023-05-05T10:15:21.587Z,31.01
2023-05-05T10:16:21.571Z,31.01
2023-05-05T10:17:21.506Z,31.07
2023-05-05T10:18:21.532Z,30.99
2023-05-05T10:19:21.552Z,30.97
2023-05-05T10:20:21.440Z,30.96
2023-05-05T10:21:21.469Z,30.97
2023-05-05T10:22:21.476Z,30.97
2023-05-05T10:23:21.498Z,30.94
2023-05-05T10:24:21.460Z,30.90
2023-05-05T10:25:21.448Z,30.87
2023-05-05T10:26:21.472Z,30.93
2023-05-05T10:27:21.465Z,30.89
2023-05-05T10:28:21.476Z,30.91
2023-05-05T10:29:21.505Z,30.86
2023-05-05T10:30:21.547Z,30.84
2023-05-05T10:31:26.354Z,30.83
2023-05-05T10:32:50.897Z,30.84
2023-05-05T10:34:21.519Z,30.77
2023-05-05T10:35:21.503Z,30.82
2023-05-05T10:36:21.588Z,30.70
2023-05-05T10:37:21.482Z,30.78
2023-05-05T10:38:21.457Z,30.87
2023-05-05T10:39:21.443Z,30.89
2023-05-05T10:40:21.454Z,31.43
2023-05-05T10:41:21.455Z,32.39
2023-05-05T10:42:21.435Z,32.99
2023-05-05T10:43:21.432Z,33.02
2023-05-05T10:44:21.420Z,33.02
2023-05-05T10:45:21.452Z,33.23
2023-05-05T10:46:21.442Z,33.36
2023-05-05T10:47:21.408Z,33.57
2023-05-05T10:48:21.546Z,33.61
2023-05-05T10:49:21.386Z,33.51
2023-05-05T10:50:21.379Z,33.46
2023-05-05T10:51:31.043Z,33.52
2023-05-05T10:52:22.368Z,33.51
2023-05-05T10:53:21.370Z,33.36
2023-05-05T10:54:21.436Z,33.52
2023-05-05T10:55:21.399Z,33.94
2023-05-05T10:56:21.313Z,34.00
2023-05-05T10:57:21.354Z,34.10
2023-05-05T10:58:21.345Z,34.16
2023-05-05T10:59:21.306Z,34.45
2023-05-05T11:00:21.321Z,34.55
2023-05-05T11:01:21.418Z,34.43
2023-05-05T11:02:21.464Z,34.46
2023-05-05T11:03:21.524Z,34.32
2023-05-05T11:04:21.585Z,34.31
2023-05-05T11:05:21.664Z,34.57
2023-05-05T11:06:21.635Z,34.51
2023-05-05T11:07:21.640Z,34.32
2023-05-05T11:08:21.669Z,34.18
2023-05-05T11:09:21.691Z,34.00
2023-05-05T11:10:21.804Z,34.06
2023-05-05T11:11:21.844Z,33.91
2023-05-05T11:12:21.881Z,34.08
2023-05-05T11:13:21.952Z,34.03
2023-05-05T11:14:21.911Z,34.16
2023-05-05T11:15:21.958Z,34.30
2023-05-05T11:16:22.033Z,34.34
2023-05-05T11:17:22.022Z,34.32
2023-05-05T11:18:22.057Z,34.38
2023-05-05T11:19:22.061Z,34.47
2023-05-05T11:20:22.217Z,34.47
2023-05-05T11:21:22.133Z,34.61
2023-05-05T11:22:22.099Z,34.79
2023-05-05T11:23:22.178Z,34.66
2023-05-05T11:24:22.140Z,34.78
2023-05-05T11:25:22.154Z,34.87
2023-05-05T11:26:22.171Z,35.02
2023-05-05T11:27:22.174Z,34.95
2023-05-05T11:28:22.571Z,35.32
2023-05-05T11:29:22.191Z,35.33
2023-05-05T11:30:22.200Z,35.29
2023-05-05T11:31:22.278Z,34.65
2023-05-05T11:32:22.225Z,34.80
2023-05-05T11:33:22.544Z,34.67
2023-05-05T11:34:22.214Z,34.66
2023-05-05T11:35:22.216Z,34.64
2023-05-05T11:36:22.300Z,34.73
2023-05-05T11:37:22.304Z,34.69
2023-05-05T11:38:22.243Z,34.62
2023-05-05T11:39:22.293Z,34.58
2023-05-05T11:40:22.272Z,34.47
2023-05-05T11:41:22.310Z,34.45
2023-05-05T11:42:22.362Z,34.23
2023-05-05T11:43:22.513Z,33.79
2023-05-05T11:44:22.425Z,33.67
2023-05-05T11:45:22.419Z,33.92
2023-05-05T11:46:22.552Z,33.99
2023-05-05T11:47:22.533Z,34.03
2023-05-05T11:48:22.570Z,33.82
2023-05-05T11:49:22.617Z,33.84
2023-05-05T11:50:22.694Z,33.82
2023-05-05T11:51:22.677Z,33.74
2023-05-05T11:52:22.808Z,33.07
2023-05-05T11:53:22.779Z,33.16
2023-05-05T11:54:22.815Z,33.35
2023-05-05T11:55:22.892Z,33.52
2023-05-05T11:56:22.927Z,33.70
2023-05-05T11:57:22.985Z,33.96
2023-05-05T11:58:22.994Z,33.85
2023-05-05T11:59:23.049Z,33.90
2023-05-05T12:00:23.125Z,33.79
2023-05-05T12:01:23.165Z,33.82
2023-05-05T12:02:24.111Z,33.78
2023-05-05T12:03:23.412Z,33.71
2023-05-05T12:04:23.336Z,33.76
2023-05-05T12:05:23.316Z,33.80
2023-05-05T12:06:23.338Z,33.76
2023-05-05T12:07:23.425Z,33.75
2023-05-05T12:08:23.515Z,33.68
2023-05-05T12:09:23.485Z,33.58
2023-05-05T12:10:23.544Z,33.44
2023-05-05T12:11:23.595Z,33.41
2023-05-05T12:12:23.646Z,33.40
2023-05-05T12:13:23.724Z,33.28
2023-05-05T12:14:23.755Z,33.15
2023-05-05T12:15:23.776Z,33.19
2023-05-05T12:16:23.886Z,33.10
2023-05-05T12:17:23.943Z,33.10
2023-05-05T12:18:23.926Z,32.97
2023-05-05T12:19:23.953Z,32.92
2023-05-05T12:20:24.034Z,32.80
2023-05-05T12:21:24.049Z,32.78
2023-05-05T12:22:24.152Z,32.77
2023-05-05T12:23:24.144Z,32.73
2023-05-05T12:24:24.156Z,32.83
2023-05-05T12:25:24.219Z,32.81
2023-05-05T12:26:24.251Z,32.81
2023-05-05T12:27:24.384Z,32.75
2023-05-05T12:28:24.369Z,32.62
2023-05-05T12:29:24.405Z,32.40
2023-05-05T12:30:24.451Z,32.46
2023-05-05T12:31:24.495Z,32.48
2023-05-05T12:32:24.562Z,32.54
2023-05-05T12:33:24.577Z,32.53
2023-05-05T12:34:24.607Z,32.47
2023-05-05T12:35:24.637Z,32.37
2023-05-05T12:36:24.725Z,31.94
2023-05-05T12:37:24.746Z,32.05
2023-05-05T12:38:24.810Z,32.13
2023-05-05T12:39:24.836Z,32.23
2023-05-05T12:40:24.877Z,32.17
2023-05-05T12:41:24.933Z,32.02
2023-05-05T12:42:24.950Z,32.00
2023-05-05T12:43:25.000Z,31.89
2023-05-05T12:44:25.060Z,31.94
2023-05-05T12:45:25.093Z,31.87
2023-05-05T12:46:25.217Z,31.83
2023-05-05T12:47:25.227Z,31.83
2023-05-05T12:48:25.224Z,31.62
2023-05-05T12:49:25.305Z,31.69
2023-05-05T12:50:25.308Z,31.84
2023-05-05T12:51:25.359Z,32.03
2023-05-05T12:52:25.432Z,32.21
2023-05-05T12:53:25.440Z,32.39